createdAt,value
2017-07-26T00:01:25.371Z,6.18
2017-07-26T00:03:52.923Z,6.65
2017-07-26T00:06:20.468Z,8.93
2017-07-26T00:25:42.539Z,7.95
2017-07-26T00:28:37.591Z,7.75
2017-07-26T00:31:13.321Z,7.00
2017-07-26T00:33:45.482Z,6.85
2017-07-26T00:38:54.413Z,7.15
2017-07-26T00:41:27.127Z,8.20
2017-07-26T00:44:03.349Z,7.35
2017-07-26T00:46:38.962Z,7.93
2017-07-26T00:49:10.441Z,10.30
2017-07-26T00:51:45.579Z,8.07
2017-07-26T00:54:20.381Z,8.05
2017-07-26T00:56:51.430Z,7.87
2017-07-26T00:59:26.459Z,8.73
2017-07-26T01:01:54.793Z,9.65
2017-07-26T01:04:23.824Z,10.05
2017-07-26T01:06:51.558Z,9.27
2017-07-26T01:09:19.103Z,8.35
2017-07-26T01:11:46.811Z,9.40
2017-07-26T01:14:14.354Z,8.93
2017-07-26T01:16:41.908Z,10.65
2017-07-26T01:19:09.491Z,9.93
2017-07-26T01:21:37.048Z,10.60
2017-07-26T01:24:04.591Z,10.40
2017-07-26T01:26:32.463Z,10.05
2017-07-26T01:29:00.006Z,10.50
2017-07-26T01:31:27.552Z,10.38
2017-07-26T01:33:55.232Z,10.80
2017-07-26T01:36:22.786Z,11.38
2017-07-26T01:38:50.358Z,10.25
2017-07-26T01:41:18.225Z,11.07
2017-07-26T01:43:45.767Z,10.88
2017-07-26T01:46:13.306Z,10.82
2017-07-26T01:48:40.918Z,9.70
2017-07-26T01:51:08.480Z,12.45
2017-07-26T01:53:36.030Z,11.18
2017-07-26T01:56:03.627Z,13.73
2017-07-26T01:58:31.200Z,11.68
2017-07-26T02:00:58.758Z,11.43
2017-07-26T02:03:26.368Z,11.57
2017-07-26T02:05:53.918Z,10.30
2017-07-26T02:08:21.464Z,9.35
2017-07-26T02:10:49.237Z,8.93
2017-07-26T02:13:16.787Z,12.20
2017-07-26T02:15:44.342Z,9.20
2017-07-26T02:18:12.026Z,10.38
2017-07-26T02:20:39.575Z,9.95
2017-07-26T02:23:07.116Z,10.25
2017-07-26T02:25:34.704Z,10.73
2017-07-26T02:28:02.266Z,10.82
2017-07-26T02:30:29.815Z,10.65
2017-07-26T02:32:57.525Z,9.88
2017-07-26T02:35:25.077Z,8.32
2017-07-26T02:37:52.636Z,8.63
2017-07-26T02:40:20.231Z,8.23
2017-07-26T02:42:47.781Z,7.45
2017-07-26T02:45:15.339Z,8.35
2017-07-26T02:47:42.929Z,8.52
2017-07-26T02:50:10.466Z,8.05
2017-07-26T02:52:38.014Z,8.57
2017-07-26T02:55:05.582Z,8.48
2017-07-26T02:57:33.126Z,8.15
2017-07-26T03:00:00.664Z,8.77
2017-07-26T03:02:28.242Z,8.95
2017-07-26T03:04:55.789Z,10.15
2017-07-26T03:07:23.351Z,9.77
2017-07-26T03:09:50.951Z,10.32
2017-07-26T03:12:18.502Z,10.20
2017-07-26T03:14:46.048Z,10.43
2017-07-26T03:17:13.764Z,11.40
2017-07-26T03:19:41.326Z,13.15
2017-07-26T03:22:08.878Z,13.65
2017-07-26T03:24:36.611Z,14.68
2017-07-26T03:27:04.168Z,13.88
2017-07-26T03:29:31.716Z,21.10
2017-07-26T03:31:59.386Z,16.08
2017-07-26T03:34:26.933Z,15.77
2017-07-26T03:36:54.482Z,15.82
2017-07-26T03:39:22.317Z,18.58
2017-07-26T03:41:49.865Z,16.05
2017-07-26T03:44:17.419Z,18.58
2017-07-26T03:46:45.172Z,21.58
2017-07-26T03:49:12.747Z,23.92
2017-07-26T03:51:40.302Z,20.55
2017-07-26T03:54:07.905Z,19.83
2017-07-26T03:56:35.458Z,21.83
2017-07-26T03:59:03.011Z,26.45
2017-07-26T04:01:30.628Z,21.40
2017-07-26T04:03:58.183Z,18.30
2017-07-26T04:06:25.733Z,22.70
2017-07-26T04:08:53.306Z,21.77
2017-07-26T04:11:20.871Z,23.95
2017-07-26T04:13:48.424Z,24.25
2017-07-26T04:16:16.170Z,22.98
2017-07-26T04:18:43.734Z,21.15
2017-07-26T04:21:11.295Z,21.15
2017-07-26T04:23:39.184Z,18.55
2017-07-26T04:26:06.755Z,19.83
2017-07-26T04:28:34.313Z,22.27
2017-07-26T04:31:01.932Z,25.40
2017-07-26T04:33:29.483Z,25.55
2017-07-26T04:35:57.034Z,20.95
2017-07-26T04:38:24.744Z,24.58
2017-07-26T04:40:52.300Z,20.88
2017-07-26T04:43:19.854Z,26.90
2017-07-26T04:45:47.443Z,26.40
2017-07-26T04:48:14.998Z,21.05
2017-07-26T04:50:42.565Z,19.37
2017-07-26T04:53:10.323Z,23.98
2017-07-26T04:55:37.869Z,24.55
2017-07-26T04:58:05.427Z,19.70
2017-07-26T05:00:33.175Z,25.33
2017-07-26T05:03:00.734Z,19.17
2017-07-26T05:05:28.283Z,25.75
2017-07-26T05:07:56.011Z,22.60
2017-07-26T05:10:23.575Z,22.35
2017-07-26T05:12:51.123Z,24.63
2017-07-26T05:15:18.819Z,26.37
2017-07-26T05:17:46.391Z,24.75
2017-07-26T05:20:13.952Z,20.10
2017-07-26T05:22:41.708Z,21.35
2017-07-26T05:25:09.266Z,22.17
2017-07-26T05:27:36.825Z,23.10
2017-07-26T05:30:04.440Z,24.58
2017-07-26T05:32:31.994Z,22.75
2017-07-26T05:34:59.555Z,22.42
2017-07-26T05:37:27.275Z,20.75
2017-07-26T05:39:54.823Z,16.83
2017-07-26T05:42:22.370Z,18.00
2017-07-26T05:44:50.175Z,21.08
2017-07-26T05:47:17.740Z,19.95
2017-07-26T05:49:45.295Z,18.60
2017-07-26T05:52:12.990Z,17.83
2017-07-26T05:54:40.554Z,20.92
2017-07-26T05:57:08.115Z,17.87
2017-07-26T05:59:35.846Z,22.13
2017-07-26T06:02:03.410Z,18.60
2017-07-26T06:04:30.965Z,25.35
2017-07-26T06:06:58.666Z,20.12
2017-07-26T06:09:26.225Z,19.23
2017-07-26T06:11:53.787Z,20.80
2017-07-26T06:14:21.541Z,20.23
2017-07-26T06:16:49.098Z,18.65
2017-07-26T06:19:16.648Z,19.75
2017-07-26T06:21:44.407Z,23.23
2017-07-26T06:24:11.972Z,20.98
2017-07-26T06:26:39.540Z,22.30
2017-07-26T06:29:07.400Z,22.70
2017-07-26T06:31:34.961Z,21.87
2017-07-26T06:34:02.524Z,22.60
2017-07-26T06:36:30.200Z,21.08
2017-07-26T06:38:57.751Z,19.90
2017-07-26T06:41:25.307Z,20.27
2017-07-26T06:43:53.023Z,20.23
2017-07-26T06:46:20.584Z,21.65
2017-07-26T06:48:48.141Z,20.20
2017-07-26T06:51:15.827Z,18.92
2017-07-26T06:53:43.376Z,22.73
2017-07-26T06:56:10.939Z,22.08
2017-07-26T06:58:38.792Z,17.87
2017-07-26T07:01:06.348Z,18.15
2017-07-26T07:03:33.919Z,17.17
2017-07-26T07:06:01.499Z,20.40
2017-07-26T07:08:29.096Z,22.23
2017-07-26T07:10:56.661Z,17.48
2017-07-26T07:13:24.350Z,22.15
2017-07-26T07:15:51.907Z,18.80
2017-07-26T07:18:19.470Z,18.65
2017-07-26T07:20:47.201Z,18.45
2017-07-26T07:23:14.800Z,14.95
2017-07-26T07:25:42.360Z,17.98
2017-07-26T07:28:10.090Z,16.65
2017-07-26T07:30:37.657Z,16.70
2017-07-26T07:33:05.224Z,14.43
2017-07-26T07:35:32.924Z,14.30
2017-07-26T07:38:00.471Z,13.13
2017-07-26T07:40:28.079Z,13.70
2017-07-26T07:42:56.060Z,13.75
2017-07-26T07:45:23.615Z,14.65
2017-07-26T07:47:51.169Z,15.55
2017-07-26T07:50:18.859Z,14.80
2017-07-26T07:52:46.417Z,19.00
2017-07-26T07:55:13.972Z,16.10
2017-07-26T07:57:41.705Z,16.75
2017-07-26T08:00:09.259Z,15.27
2017-07-26T08:02:36.830Z,15.60
2017-07-26T08:05:04.515Z,13.75
2017-07-26T08:07:32.072Z,13.40
2017-07-26T08:09:59.643Z,13.98
2017-07-26T08:12:27.536Z,14.38
2017-07-26T08:14:55.104Z,15.20
2017-07-26T08:17:22.667Z,14.18
2017-07-26T08:19:50.418Z,11.25
2017-07-26T08:22:17.993Z,11.73
2017-07-26T08:24:45.564Z,10.73
2017-07-26T08:27:13.174Z,14.02
2017-07-26T08:29:40.732Z,12.02
2017-07-26T08:32:08.297Z,12.00
2017-07-26T08:34:36.000Z,11.10
2017-07-26T08:37:03.572Z,11.85
2017-07-26T08:39:31.133Z,11.50
2017-07-26T08:41:58.894Z,12.77
2017-07-26T08:44:26.453Z,11.12
2017-07-26T08:46:54.013Z,11.48
2017-07-26T08:49:21.607Z,11.93
2017-07-26T08:51:49.159Z,12.20
2017-07-26T08:54:16.721Z,11.23
2017-07-26T08:56:44.327Z,11.05
2017-07-26T08:59:11.890Z,10.68
2017-07-26T09:01:39.447Z,10.95
2017-07-26T09:04:07.180Z,12.57
2017-07-26T09:06:34.738Z,10.10
2017-07-26T09:09:02.340Z,10.43
2017-07-26T09:11:29.945Z,10.13
2017-07-26T09:16:31.331Z,10.40
2017-07-26T09:18:58.890Z,9.48
2017-07-26T09:21:26.442Z,10.57
2017-07-26T09:23:54.034Z,9.75
2017-07-26T09:26:21.624Z,11.23
2017-07-26T09:28:49.183Z,9.80
2017-07-26T09:31:16.927Z,9.50
2017-07-26T09:33:44.487Z,10.88
2017-07-26T09:36:12.051Z,9.20
2017-07-26T09:38:39.787Z,13.70
2017-07-26T09:41:07.341Z,9.20
2017-07-26T09:43:34.912Z,9.80
2017-07-26T09:46:02.687Z,9.20
2017-07-26T09:48:30.245Z,8.27
2017-07-26T09:50:57.800Z,7.33
2017-07-26T09:53:25.535Z,8.50
2017-07-26T09:55:53.098Z,8.63
2017-07-26T09:58:20.657Z,7.50
2017-07-26T10:00:48.338Z,7.83
2017-07-26T10:03:15.880Z,9.20
2017-07-26T10:05:43.427Z,6.50
2017-07-26T10:08:11.024Z,10.27
2017-07-26T10:10:38.580Z,8.93
2017-07-26T10:13:06.129Z,7.63
2017-07-26T10:15:33.751Z,8.67
2017-07-26T10:18:01.310Z,6.80
2017-07-26T10:20:28.869Z,7.97
2017-07-26T10:22:56.593Z,6.70
2017-07-26T10:25:24.151Z,7.67
2017-07-26T10:27:51.704Z,5.40
2017-07-26T10:30:19.572Z,7.83
2017-07-26T10:32:47.135Z,5.17
2017-07-26T10:35:14.696Z,5.47
2017-07-26T10:37:42.289Z,4.77
2017-07-26T10:40:09.851Z,5.30
2017-07-26T10:42:37.415Z,4.60
2017-07-26T10:45:05.020Z,5.73
2017-07-26T10:47:32.585Z,5.57
2017-07-26T10:50:00.182Z,4.60
2017-07-26T10:52:27.934Z,8.47
2017-07-26T10:54:55.500Z,4.97
2017-07-26T10:57:23.043Z,5.13
2017-07-26T10:59:50.645Z,5.13
2017-07-26T11:02:18.245Z,4.93
2017-07-26T11:04:45.787Z,5.20
2017-07-26T11:07:13.511Z,5.47
2017-07-26T11:09:41.059Z,4.83
2017-07-26T11:12:08.619Z,5.40
2017-07-26T11:14:36.348Z,4.70
2017-07-26T11:17:03.899Z,5.30
2017-07-26T11:19:31.468Z,4.70
2017-07-26T11:21:59.358Z,5.40
2017-07-26T11:24:26.917Z,5.40
2017-07-26T11:26:54.460Z,6.87
2017-07-26T11:29:22.175Z,5.20
2017-07-26T11:31:49.731Z,4.47
2017-07-26T11:34:17.336Z,4.53
2017-07-26T11:36:45.207Z,4.57
2017-07-26T11:39:12.748Z,4.93
2017-07-26T11:41:40.323Z,4.80
2017-07-26T11:44:08.038Z,5.13
2017-07-26T11:46:35.598Z,4.57
2017-07-26T11:49:03.187Z,5.20
2017-07-26T11:51:30.936Z,5.03
2017-07-26T11:53:58.497Z,6.03
2017-07-26T11:56:26.079Z,5.43
2017-07-26T11:58:54.175Z,5.00
2017-07-26T12:01:21.738Z,5.17
2017-07-26T12:03:49.302Z,6.30
2017-07-26T12:06:16.919Z,5.73
2017-07-26T12:08:44.479Z,5.40
2017-07-26T12:11:12.040Z,7.30
2017-07-26T12:13:39.805Z,6.50
2017-07-26T12:16:07.367Z,6.60
2017-07-26T12:18:34.963Z,5.80
2017-07-26T12:21:02.944Z,6.00
2017-07-26T12:23:30.496Z,6.60
2017-07-26T12:25:58.064Z,5.77
2017-07-26T12:28:25.803Z,6.23
2017-07-26T12:30:53.362Z,5.50
2017-07-26T12:33:20.923Z,5.67
2017-07-26T12:35:48.529Z,11.40
2017-07-26T12:38:16.087Z,5.60
2017-07-26T12:40:43.705Z,5.27
2017-07-26T12:43:11.316Z,5.93
2017-07-26T12:45:38.878Z,6.10
2017-07-26T12:48:06.427Z,5.67
2017-07-26T12:50:34.196Z,6.83
2017-07-26T12:53:01.798Z,6.00
2017-07-26T12:55:29.362Z,7.40
2017-07-26T12:57:56.971Z,7.33
2017-07-26T13:00:24.537Z,6.60
2017-07-26T13:02:52.098Z,6.23
2017-07-26T13:05:19.836Z,6.77
2017-07-26T13:07:47.443Z,6.20
2017-07-26T13:10:15.018Z,6.07
2017-07-26T13:12:42.632Z,6.30
2017-07-26T13:15:10.192Z,6.10
2017-07-26T13:17:37.792Z,6.27
2017-07-26T13:20:05.417Z,6.60
2017-07-26T13:22:32.987Z,6.00
2017-07-26T13:25:00.543Z,6.60
2017-07-26T13:27:28.237Z,6.13
2017-07-26T13:29:55.796Z,8.23
2017-07-26T13:32:23.360Z,6.10
2017-07-26T13:34:50.955Z,6.67
2017-07-26T13:37:18.506Z,5.60
2017-07-26T13:39:46.066Z,6.00
2017-07-26T13:42:13.947Z,5.90
2017-07-26T13:44:41.490Z,8.60
2017-07-26T13:47:09.032Z,6.73
2017-07-26T13:49:36.766Z,5.43
2017-07-26T13:52:04.338Z,5.77
2017-07-26T13:54:31.886Z,5.80
2017-07-26T13:56:59.658Z,6.07
2017-07-26T13:59:27.212Z,6.90
2017-07-26T14:01:54.752Z,7.97
2017-07-26T14:04:22.469Z,6.47
2017-07-26T14:06:50.024Z,5.30
2017-07-26T14:09:17.583Z,5.60
2017-07-26T14:11:45.262Z,5.40
2017-07-26T14:14:12.804Z,5.67
2017-07-26T14:16:40.346Z,6.30
2017-07-26T14:19:07.952Z,6.00
2017-07-26T14:21:35.493Z,5.57
2017-07-26T14:24:03.040Z,6.13
2017-07-26T14:26:30.615Z,5.60
2017-07-26T14:28:58.230Z,5.50
2017-07-26T14:31:25.779Z,5.13
2017-07-26T14:33:53.417Z,5.63
2017-07-26T14:36:20.987Z,5.63
2017-07-26T14:38:48.529Z,5.53
2017-07-26T14:41:16.407Z,5.37
2017-07-26T14:43:43.967Z,5.43
2017-07-26T14:46:11.590Z,6.00
2017-07-26T14:48:39.335Z,5.40
2017-07-26T14:51:06.969Z,5.63
2017-07-26T14:53:34.516Z,5.07
2017-07-26T14:56:02.144Z,5.70
2017-07-26T14:58:29.763Z,5.50
2017-07-26T15:00:57.321Z,4.70
2017-07-26T15:03:25.188Z,4.10
2017-07-26T15:05:52.793Z,5.07
2017-07-26T15:08:20.362Z,5.50
2017-07-26T15:10:52.484Z,5.00
2017-07-26T15:13:20.032Z,4.97
2017-07-26T15:15:47.620Z,5.07
2017-07-26T15:18:15.497Z,5.63
2017-07-26T15:20:43.053Z,7.27
2017-07-26T15:23:10.617Z,6.87
2017-07-26T15:25:38.214Z,8.20
2017-07-26T15:28:05.763Z,11.00
2017-07-26T15:30:33.313Z,8.70
2017-07-26T15:33:01.024Z,9.90
2017-07-26T15:35:28.571Z,8.10
2017-07-26T15:37:56.124Z,7.20
2017-07-26T15:40:24.259Z,6.63
2017-07-26T15:42:51.809Z,9.20
2017-07-26T15:45:19.365Z,8.50
2017-07-26T15:47:47.114Z,9.30
2017-07-26T15:50:14.678Z,9.63
2017-07-26T15:52:42.280Z,10.57
2017-07-26T15:55:10.066Z,9.07
2017-07-26T15:57:37.636Z,9.30
2017-07-26T16:00:05.219Z,9.33
2017-07-26T16:02:33.115Z,9.57
2017-07-26T16:05:00.676Z,10.60
2017-07-26T16:07:28.231Z,10.17
2017-07-26T16:09:55.953Z,9.83
2017-07-26T16:12:23.555Z,9.70
2017-07-26T16:14:51.118Z,10.37
2017-07-26T16:17:18.805Z,8.93
2017-07-26T16:19:46.372Z,10.30
2017-07-26T16:22:13.926Z,9.30
2017-07-26T16:24:41.527Z,9.53
2017-07-26T16:27:09.078Z,9.20
2017-07-26T16:29:36.635Z,10.17
2017-07-26T16:32:04.234Z,8.90
2017-07-26T16:34:31.794Z,10.53
2017-07-26T16:36:59.358Z,9.17
2017-07-26T16:39:26.995Z,9.43
2017-07-26T16:41:54.544Z,10.30
2017-07-26T16:44:22.125Z,9.87
2017-07-26T16:46:49.820Z,9.90
2017-07-26T16:49:17.428Z,9.93
2017-07-26T16:51:45.021Z,9.23
2017-07-26T16:54:12.755Z,11.03
2017-07-26T16:56:40.961Z,9.00
2017-07-26T16:59:08.568Z,10.37
2017-07-26T17:01:36.309Z,9.47
2017-07-26T17:04:03.870Z,9.37
2017-07-26T17:06:31.418Z,9.80
2017-07-26T17:08:59.042Z,9.83
2017-07-26T17:11:26.611Z,10.27
2017-07-26T17:13:54.234Z,9.70
2017-07-26T17:16:21.996Z,10.03
2017-07-26T17:18:49.755Z,9.93
2017-07-26T17:21:17.450Z,8.87
2017-07-26T17:23:46.118Z,8.73
2017-07-26T17:26:13.706Z,9.40
2017-07-26T17:28:41.298Z,10.60
2017-07-26T17:31:08.966Z,10.03
2017-07-26T17:33:37.504Z,9.90
2017-07-26T17:36:05.894Z,12.20
2017-07-26T17:38:34.383Z,8.63
2017-07-26T17:41:02.415Z,10.00
2017-07-26T17:43:30.402Z,9.23
2017-07-26T17:45:58.577Z,9.10
2017-07-26T17:48:26.507Z,10.00
2017-07-26T17:50:54.904Z,10.03
2017-07-26T17:53:23.672Z,9.27
2017-07-26T17:55:51.624Z,10.27
2017-07-26T17:58:19.733Z,10.13
2017-07-26T18:00:47.825Z,8.67
2017-07-26T18:03:15.866Z,8.73
2017-07-26T18:05:43.474Z,10.13
2017-07-26T18:08:11.625Z,9.50
2017-07-26T18:10:40.225Z,9.80
2017-07-26T18:13:08.206Z,9.73
2017-07-26T18:15:38.033Z,9.47
2017-07-26T18:18:06.142Z,9.03
2017-07-26T18:20:34.167Z,9.13
2017-07-26T18:23:02.464Z,9.53
2017-07-26T18:25:30.020Z,9.07
2017-07-26T18:27:58.100Z,9.13
2017-07-26T18:30:26.224Z,8.87
2017-07-26T18:32:53.790Z,9.70
2017-07-26T18:35:21.504Z,10.20
2017-07-26T18:37:49.295Z,8.73
2017-07-26T18:40:17.250Z,9.20
2017-07-26T18:42:44.912Z,8.73
2017-07-26T18:45:12.610Z,9.50
2017-07-26T18:47:40.262Z,10.30
2017-07-26T18:50:07.860Z,8.67
2017-07-26T18:52:35.548Z,9.93
2017-07-26T18:55:03.146Z,9.00
2017-07-26T18:57:30.709Z,8.93
2017-07-26T18:59:58.443Z,10.20
2017-07-26T19:02:26.003Z,8.70
2017-07-26T19:04:53.558Z,9.13
2017-07-26T19:07:21.542Z,9.43
2017-07-26T19:09:49.095Z,8.27
2017-07-26T19:12:16.664Z,8.90
2017-07-26T19:14:44.559Z,10.10
2017-07-26T19:17:12.170Z,10.23
2017-07-26T19:19:39.758Z,9.27
2017-07-26T19:22:07.635Z,9.00
2017-07-26T19:24:35.226Z,10.18
2017-07-26T19:27:02.924Z,9.70
2017-07-26T19:29:30.756Z,9.48
2017-07-26T19:31:58.455Z,9.70
2017-07-26T19:34:26.123Z,9.90
2017-07-26T19:36:54.602Z,9.93
2017-07-26T19:39:22.222Z,9.52
2017-07-26T19:41:49.835Z,8.90
2017-07-26T19:44:17.583Z,9.07
2017-07-26T19:46:45.162Z,12.02
2017-07-26T19:49:12.754Z,10.18
2017-07-26T19:51:40.750Z,10.40
2017-07-26T19:54:08.427Z,10.80
2017-07-26T19:56:36.076Z,9.90
2017-07-26T19:59:03.735Z,9.70
2017-07-26T20:01:31.559Z,9.82
2017-07-26T20:03:59.962Z,10.35
2017-07-26T20:06:27.967Z,10.15
2017-07-26T20:08:55.544Z,10.85
2017-07-26T20:11:23.184Z,11.48
2017-07-26T20:13:50.934Z,10.77
2017-07-26T20:16:18.566Z,10.70
2017-07-26T20:18:46.343Z,10.50
2017-07-26T20:21:14.117Z,11.12
2017-07-26T20:23:41.694Z,10.18
2017-07-26T20:26:09.290Z,10.23
2017-07-26T20:28:37.250Z,10.00
2017-07-26T20:31:04.928Z,9.60
2017-07-26T20:33:32.864Z,10.30
2017-07-26T20:36:00.810Z,10.55
2017-07-26T20:38:28.375Z,9.40
2017-07-26T20:40:56.831Z,11.75
2017-07-26T20:43:24.695Z,10.63
2017-07-26T20:45:52.292Z,12.00
2017-07-26T20:48:19.866Z,10.25
2017-07-26T20:50:47.596Z,11.18
2017-07-26T20:53:15.176Z,10.18
2017-07-26T20:55:42.734Z,11.38
2017-07-26T20:58:10.536Z,11.43
2017-07-26T21:00:38.105Z,10.95
2017-07-26T21:03:05.659Z,11.68
2017-07-26T21:05:33.560Z,10.35
2017-07-26T21:08:01.162Z,11.10
2017-07-26T21:10:28.726Z,11.43
2017-07-26T21:12:56.352Z,10.40
2017-07-26T21:15:23.912Z,10.80
2017-07-26T21:17:51.479Z,10.90
2017-07-26T21:20:19.116Z,11.73
2017-07-26T21:22:46.724Z,10.77
2017-07-26T21:25:14.381Z,10.63
2017-07-26T21:27:42.038Z,11.90
2017-07-26T21:30:09.599Z,11.60
2017-07-26T21:32:37.170Z,10.57
2017-07-26T21:35:04.899Z,11.70
2017-07-26T21:37:32.457Z,12.50
2017-07-26T21:40:00.019Z,13.00
2017-07-26T21:42:27.758Z,11.93
2017-07-26T21:44:55.319Z,10.43
2017-07-26T21:47:22.875Z,10.30
2017-07-26T21:49:50.494Z,11.00
2017-07-26T21:52:18.151Z,11.70
2017-07-26T21:54:45.710Z,10.10
2017-07-26T21:57:13.316Z,10.50
2017-07-26T21:59:40.884Z,11.80
2017-07-26T22:02:08.441Z,11.20
2017-07-26T22:04:36.181Z,10.60
2017-07-26T22:07:03.765Z,10.77
2017-07-26T22:09:31.340Z,10.93
2017-07-26T22:11:59.086Z,11.30
2017-07-26T22:14:26.648Z,11.27
2017-07-26T22:16:54.210Z,12.82
2017-07-26T22:19:21.830Z,10.60
2017-07-26T22:21:49.408Z,11.02
2017-07-26T22:24:16.966Z,11.60
2017-07-26T22:26:44.643Z,11.80
2017-07-26T22:29:12.198Z,12.02
2017-07-26T22:31:39.754Z,11.77
2017-07-26T22:34:07.482Z,11.35
2017-07-26T22:36:35.051Z,11.73
2017-07-26T22:39:02.609Z,12.90
2017-07-26T22:41:30.281Z,13.05
2017-07-26T22:43:57.838Z,13.13
2017-07-26T22:46:25.389Z,14.25
2017-07-26T22:48:52.977Z,12.60
2017-07-26T22:51:20.551Z,12.07
2017-07-26T22:53:48.119Z,12.63
2017-07-26T22:56:15.905Z,13.20
2017-07-26T22:58:43.472Z,14.18
2017-07-26T23:01:11.033Z,14.18
2017-07-26T23:03:38.627Z,13.52
2017-07-26T23:06:06.192Z,13.02
2017-07-26T23:08:33.763Z,13.68
2017-07-26T23:11:01.523Z,13.77
2017-07-26T23:13:29.094Z,13.55
2017-07-26T23:15:56.656Z,13.50
2017-07-26T23:18:24.387Z,13.07
2017-07-26T23:20:51.942Z,12.93
2017-07-26T23:23:19.503Z,13.30
2017-07-26T23:25:47.272Z,14.23
2017-07-26T23:28:14.829Z,13.10
2017-07-26T23:30:42.383Z,13.93
2017-07-26T23:33:10.012Z,14.13
2017-07-26T23:35:37.592Z,15.15
2017-07-26T23:38:05.152Z,15.32
2017-07-26T23:40:32.854Z,14.30
2017-07-26T23:43:00.427Z,15.32
2017-07-26T23:45:27.990Z,16.02
2017-07-26T23:47:55.607Z,15.10
2017-07-26T23:50:23.166Z,14.25
2017-07-26T23:52:50.727Z,15.52
2017-07-26T23:55:18.460Z,14.80
2017-07-26T23:57:46.017Z,14.90
